Time;durP1;ratioP1;P1;durP2;ratioP2;P2;SDS_P1;SDS_P2;PMS_P1;PMS_P2;Temp;Humidity;BMP_temperature;BMP_pressure;BME280_temperature;BME280_humidity;BME280_pressure;Samples;Min_cycle;Max_cycle;Signal;HPM_P1;HPM_P2
2023/08/18 00:02:01;;;;;;;17.52;11.40;;;;;;;-145.33;100.00;60416.63;4989210;28;20030;-23
2023/08/18 00:04:26;;;;;;;16.10;10.60;;;;;;;-145.33;100.00;60416.63;4989293;28;20446;-23
2023/08/18 00:06:52;;;;;;;20.58;13.23;;;;;;;-145.33;100.00;60416.63;4988628;28;20433;-26
2023/08/18 00:09:17;;;;;;;17.05;10.85;;;;;;;-145.33;100.00;60416.63;4988855;28;20038;-25
2023/08/18 00:11:43;;;;;;;11.13;7.60;;;;;;;-145.33;100.00;60416.63;4989220;28;20105;-23
2023/08/18 00:14:08;;;;;;;10.98;8.50;;;;;;;-145.33;100.00;60416.63;4971011;28;20053;-23
2023/08/18 00:16:33;;;;;;;15.38;9.35;;;;;;;-145.33;100.00;60416.63;4988429;28;20030;-24
2023/08/18 00:18:59;;;;;;;9.70;7.53;;;;;;;-145.33;100.00;60416.63;4988638;28;20421;-23
2023/08/18 00:21:24;;;;;;;15.23;9.20;;;;;;;-145.33;100.00;60416.63;4988635;28;20068;-24
2023/08/18 00:23:50;;;;;;;11.27;8.00;;;;;;;-145.33;100.00;60416.63;4988625;28;20433;-24
2023/08/18 00:26:15;;;;;;;10.80;8.02;;;;;;;-145.33;100.00;60416.63;4988567;28;20022;-23
2023/08/18 00:28:40;;;;;;;12.63;8.60;;;;;;;-145.33;100.00;60416.63;4988534;28;20038;-24
2023/08/18 00:31:08;;;;;;;17.63;9.02;;;;;;;-145.33;100.00;60416.63;4987991;28;20034;-24
2023/08/18 00:33:34;;;;;;;15.32;9.20;;;;;;;-145.33;100.00;60416.63;4989010;28;20022;-25
2023/08/18 00:35:59;;;;;;;13.65;8.13;;;;;;;-145.33;100.00;60416.63;4988325;28;20034;-24
2023/08/18 00:38:24;;;;;;;11.73;7.68;;;;;;;-145.33;100.00;60416.63;4988370;28;20034;-24
2023/08/18 00:40:50;;;;;;;11.32;7.55;;;;;;;-145.33;100.00;60416.63;4988416;28;20041;-23
2023/08/18 00:43:15;;;;;;;11.50;8.10;;;;;;;-145.33;100.00;60416.63;4988165;28;20065;-24
2023/08/18 00:45:42;;;;;;;12.52;8.38;;;;;;;-145.33;100.00;60416.63;4988127;28;20045;-23
2023/08/18 00:48:08;;;;;;;13.47;8.43;;;;;;;-145.33;100.00;60416.63;4988331;28;20129;-24
2023/08/18 00:50:34;;;;;;;12.40;8.23;;;;;;;-145.33;100.00;60416.63;4988207;28;20054;-25
2023/08/18 00:52:59;;;;;;;11.25;7.97;;;;;;;-145.33;100.00;60416.63;4988225;28;20581;-24
2023/08/18 00:55:27;;;;;;;12.85;8.70;;;;;;;-145.33;100.00;60416.63;4987995;28;20034;-23
2023/08/18 00:57:55;;;;;;;12.50;8.52;;;;;;;-145.33;100.00;60416.63;4987960;28;20121;-24
2023/08/18 01:00:23;;;;;;;12.02;8.15;;;;;;;-145.33;100.00;60416.63;4988088;28;20049;-23
2023/08/18 01:02:52;;;;;;;10.88;8.23;;;;;;;-145.33;100.00;60416.63;4987641;28;20529;-23
2023/08/18 01:05:18;;;;;;;11.60;8.90;;;;;;;-145.33;100.00;60416.63;4988113;28;20119;-24
2023/08/18 01:07:44;;;;;;;13.75;8.60;;;;;;;-145.33;100.00;60416.63;4987685;28;20062;-26
2023/08/18 01:10:10;;;;;;;13.27;8.75;;;;;;;-145.33;100.00;60416.63;4987853;28;20131;-25
2023/08/18 01:12:39;;;;;;;13.32;8.80;;;;;;;-145.33;100.00;60416.63;4987629;28;20089;-23
2023/08/18 01:15:07;;;;;;;15.23;9.30;;;;;;;-145.33;100.00;60416.63;4987636;28;20026;-30
2023/08/18 01:17:43;;;;;;;14.93;9.77;;;;;;;-145.33;100.00;60416.63;4987628;28;20403;-24
2023/08/18 01:20:10;;;;;;;12.90;9.20;;;;;;;-145.33;100.00;60416.63;4987082;28;20438;-23
2023/08/18 01:22:37;;;;;;;15.23;9.32;;;;;;;-145.33;100.00;60416.63;4987710;28;20036;-23
2023/08/18 01:25:03;;;;;;;18.25;9.70;;;;;;;-145.33;100.00;60416.63;4987536;28;20109;-24
2023/08/18 01:27:33;;;;;;;13.68;9.50;;;;;;;-145.33;100.00;60416.63;4986425;28;20027;-23
2023/08/18 01:30:00;;;;;;;13.25;9.70;;;;;;;-145.33;100.00;60416.63;4988092;28;20031;-23
2023/08/18 01:32:30;;;;;;;15.55;10.27;;;;;;;-145.33;100.00;60416.63;4987304;28;20073;-23
2023/08/18 01:34:59;;;;;;;16.60;10.85;;;;;;;-145.33;100.00;60416.63;4987482;28;20033;-24
2023/08/18 01:37:27;;;;;;;20.67;11.85;;;;;;;-145.33;100.00;60416.63;4987349;28;20035;-23
2023/08/18 01:39:54;;;;;;;17.95;11.75;;;;;;;-145.33;100.00;60416.63;4987053;28;20078;-23
2023/08/18 01:42:20;;;;;;;15.97;10.67;;;;;;;-145.33;100.00;60416.63;4987106;28;20026;-23
2023/08/18 01:44:45;;;;;;;14.70;10.50;;;;;;;-145.33;100.00;60416.63;4987208;28;20034;-23
2023/08/18 01:47:11;;;;;;;11.65;9.52;;;;;;;-145.33;100.00;60416.63;4987112;28;20022;-23
2023/08/18 01:49:36;;;;;;;13.32;9.90;;;;;;;-145.33;100.00;60416.63;4987065;28;20026;-24
2023/08/18 01:52:01;;;;;;;16.58;10.48;;;;;;;-145.33;100.00;60416.63;4986681;28;20027;-27
2023/08/18 01:54:27;;;;;;;14.65;9.80;;;;;;;-145.33;100.00;60416.63;4987017;28;20038;-23
2023/08/18 01:56:52;;;;;;;11.73;9.45;;;;;;;-145.33;100.00;60416.63;4986936;28;20033;-22
2023/08/18 01:59:18;;;;;;;14.52;10.27;;;;;;;-145.33;100.00;60416.63;4986471;28;20034;-24
2023/08/18 02:01:43;;;;;;;14.93;8.98;;;;;;;-145.33;100.00;60416.63;4986717;28;20041;-23
2023/08/18 02:04:08;;;;;;;12.65;8.88;;;;;;;-145.33;100.00;60416.63;4986625;28;20080;-22
2023/08/18 02:06:34;;;;;;;10.32;8.77;;;;;;;-145.33;100.00;60416.63;4986900;28;20050;-29
2023/08/18 02:09:00;;;;;;;12.70;9.00;;;;;;;-145.33;100.00;60416.63;4986917;28;20394;-23
2023/08/18 02:11:25;;;;;;;10.98;8.70;;;;;;;-145.33;100.00;60416.63;4986638;28;20026;-24
2023/08/18 02:13:51;;;;;;;11.40;8.65;;;;;;;-145.33;100.00;60416.63;4986429;28;20069;-24
2023/08/18 02:16:16;;;;;;;13.93;9.15;;;;;;;-145.33;100.00;60416.63;4986451;28;20023;-23
2023/08/18 02:18:42;;;;;;;11.38;8.85;;;;;;;-145.33;100.00;60416.63;4986824;28;20023;-23
2023/08/18 02:21:07;;;;;;;13.27;9.60;;;;;;;-145.33;100.00;60416.63;4986366;28;20638;-26
2023/08/18 02:23:33;;;;;;;11.05;8.40;;;;;;;-145.33;100.00;60416.63;4986457;28;20041;-23
2023/08/18 02:26:03;;;;;;;11.70;8.68;;;;;;;-145.33;100.00;60416.63;4986578;28;20034;-23
2023/08/18 02:28:29;;;;;;;15.02;9.68;;;;;;;-145.33;100.00;60416.63;4986223;28;20022;-24
2023/08/18 02:31:05;;;;;;;20.08;11.55;;;;;;;-145.33;100.00;60416.63;4986611;28;20030;-23
2023/08/18 02:33:31;;;;;;;16.27;12.95;;;;;;;-145.33;100.00;60416.63;4986537;28;20046;-24
2023/08/18 02:35:59;;;;;;;18.38;13.18;;;;;;;-145.33;100.00;60416.63;4986172;28;20030;-24
2023/08/18 02:38:25;;;;;;;25.65;13.93;;;;;;;-145.33;100.00;60416.63;4986100;28;20026;-23
2023/08/18 02:40:52;;;;;;;26.88;17.80;;;;;;;-145.33;100.00;60416.63;4986279;28;20026;-23
2023/08/18 02:43:18;;;;;;;20.92;14.10;;;;;;;-145.33;100.00;60416.63;4986474;28;20042;-26
2023/08/18 02:45:43;;;;;;;21.25;15.05;;;;;;;-145.33;100.00;60416.63;4986213;28;20117;-23
2023/08/18 02:48:11;;;;;;;25.50;16.45;;;;;;;-145.33;100.00;60416.63;4985929;28;20477;-23
2023/08/18 02:50:36;;;;;;;;;;;;;;;-145.33;100.00;60416.63;4986482;28;20035;-23
2023/08/18 02:53:03;;;;;;;23.92;16.17;;;;;;;-145.33;100.00;60416.63;4986177;28;19906;-23
2023/08/18 02:55:29;;;;;;;19.98;14.40;;;;;;;-145.33;100.00;60416.63;4985801;28;20050;-25
2023/08/18 02:57:54;;;;;;;16.67;11.80;;;;;;;-145.33;100.00;60416.63;4985836;28;20030;-23
2023/08/18 03:00:20;;;;;;;19.42;12.50;;;;;;;-145.33;100.00;60416.63;4985930;28;20034;-24
2023/08/18 03:02:46;;;;;;;20.70;13.75;;;;;;;-145.33;100.00;60416.63;4986109;28;20053;-24
2023/08/18 03:05:12;;;;;;;23.92;14.82;;;;;;;-145.33;100.00;60416.63;4985909;28;20516;-23
2023/08/18 03:07:37;;;;;;;25.27;17.75;;;;;;;-145.33;100.00;60416.63;4985716;28;20050;-23
2023/08/18 03:10:03;;;;;;;25.05;15.82;;;;;;;-145.33;100.00;60416.63;4986243;28;20458;-23
2023/08/18 03:12:28;;;;;;;29.33;16.40;;;;;;;-145.33;100.00;60416.63;4985846;28;20031;-22
2023/08/18 03:14:54;;;;;;;28.05;16.63;;;;;;;-145.33;100.00;60416.63;4986327;28;20074;-23
2023/08/18 03:17:20;;;;;;;21.73;12.63;;;;;;;-145.33;100.00;60416.63;4985670;28;20035;-23
2023/08/18 03:19:45;;;;;;;16.00;11.90;;;;;;;-145.33;100.00;60416.63;4985715;28;20030;-23
2023/08/18 03:22:11;;;;;;;14.30;10.60;;;;;;;-145.33;100.00;60416.63;4985456;28;20026;-25
2023/08/18 03:24:36;;;;;;;23.40;11.38;;;;;;;-145.33;100.00;60416.63;4985826;28;20022;-24
2023/08/18 03:27:04;;;;;;;15.25;9.98;;;;;;;-145.33;100.00;60416.63;4986064;28;20034;-23
2023/08/18 03:29:32;;;;;;;11.60;9.20;;;;;;;-145.33;100.00;60416.63;4985676;28;20123;-23
2023/08/18 03:31:57;;;;;;;15.90;10.35;;;;;;;-145.33;100.00;60416.63;4985857;28;20489;-23
2023/08/18 03:34:23;;;;;;;19.85;10.10;;;;;;;-145.33;100.00;60416.63;4985603;28;20097;-25
2023/08/18 03:36:48;;;;;;;17.50;10.88;;;;;;;-145.33;100.00;60416.63;4985809;28;20026;-23
2023/08/18 03:39:13;;;;;;;21.98;10.98;;;;;;;-145.33;100.00;60416.63;4985359;28;20030;-23
2023/08/18 03:41:39;;;;;;;15.25;11.02;;;;;;;-145.33;100.00;60416.63;4985765;28;20520;-24
2023/08/18 03:44:04;;;;;;;19.20;12.95;;;;;;;-145.33;100.00;60416.63;4985491;28;20037;-32
2023/08/18 03:46:30;;;;;;;19.23;12.20;;;;;;;-145.33;100.00;60416.63;4985638;28;20081;-23
2023/08/18 03:48:56;;;;;;;29.38;16.10;;;;;;;-145.33;100.00;60416.63;4985630;28;20034;-23
2023/08/18 03:51:21;;;;;;;26.50;15.68;;;;;;;-145.33;100.00;60416.63;4987224;28;20038;-24
2023/08/18 03:53:47;;;;;;;22.15;13.80;;;;;;;-145.33;100.00;60416.63;4989182;28;20031;-23
2023/08/18 03:56:12;;;;;;;20.50;13.40;;;;;;;-145.33;100.00;60416.63;4989000;28;20064;-24
2023/08/18 03:58:38;;;;;;;24.42;14.13;;;;;;;-145.33;100.00;60416.63;4971673;28;20024;-24
2023/08/18 04:01:06;;;;;;;30.25;15.55;;;;;;;-145.33;100.00;60416.63;4989126;28;20533;-25
2023/08/18 04:03:33;;;;;;;24.10;13.90;;;;;;;-145.33;100.00;60416.63;4989357;28;20057;-24
2023/08/18 04:05:59;;;;;;;21.48;13.70;;;;;;;-145.33;100.00;60416.63;4989027;28;20438;-23
2023/08/18 04:08:24;;;;;;;20.55;13.25;;;;;;;-145.33;100.00;60416.63;4988723;28;20061;-23
2023/08/18 04:10:49;;;;;;;22.58;12.45;;;;;;;-145.33;100.00;60416.63;4989086;28;20029;-24
2023/08/18 04:13:15;;;;;;;26.83;12.85;;;;;;;-145.33;100.00;60416.63;4988806;28;20113;-23
2023/08/18 04:15:41;;;;;;;18.90;12.77;;;;;;;-145.33;100.00;60416.63;4988973;28;20044;-24
2023/08/18 04:18:07;;;;;;;16.10;10.60;;;;;;;-145.33;100.00;60416.63;4988495;28;20037;-23
2023/08/18 04:20:33;;;;;;;13.45;10.35;;;;;;;-145.33;100.00;60416.63;4988729;28;20036;-23
2023/08/18 04:22:58;;;;;;;15.63;10.90;;;;;;;-145.33;100.00;60416.63;4988655;28;20030;-23
2023/08/18 04:25:24;;;;;;;16.08;12.00;;;;;;;-145.33;100.00;60416.63;4988743;28;20101;-23
2023/08/18 04:27:49;;;;;;;20.50;14.38;;;;;;;-145.33;100.00;60416.63;4988524;28;20026;-25
2023/08/18 04:30:14;;;;;;;34.92;19.35;;;;;;;-145.33;100.00;60416.63;4988566;28;20065;-23
2023/08/18 04:32:41;;;;;;;17.02;12.63;;;;;;;-145.33;100.00;60416.63;4988351;28;20170;-23
2023/08/18 04:35:06;;;;;;;15.35;11.07;;;;;;;-145.33;100.00;60416.63;4988400;28;20045;-23
2023/08/18 04:37:34;;;;;;;13.57;11.35;;;;;;;-145.33;100.00;60416.63;4988614;28;20058;-23
2023/08/18 04:39:59;;;;;;;16.50;10.82;;;;;;;-145.33;100.00;60416.63;4987962;28;20121;-24
2023/08/18 04:42:25;;;;;;;19.25;11.75;;;;;;;-145.33;100.00;60416.63;4988441;28;20073;-23
2023/08/18 04:44:50;;;;;;;13.70;10.65;;;;;;;-145.33;100.00;60416.63;4987925;28;20044;-23
2023/08/18 04:47:16;;;;;;;14.35;9.65;;;;;;;-145.33;100.00;60416.63;4988332;28;20030;-23
2023/08/18 04:49:41;;;;;;;17.65;11.40;;;;;;;-145.33;100.00;60416.63;4988251;28;20077;-22
2023/08/18 04:52:10;;;;;;;16.33;10.70;;;;;;;-145.33;100.00;60416.63;4988269;28;20053;-23
2023/08/18 04:54:35;;;;;;;11.63;8.52;;;;;;;-145.33;100.00;60416.63;4988285;28;20544;-34
2023/08/18 04:57:03;;;;;;;13.27;8.45;;;;;;;-145.33;100.00;60416.63;4987980;28;20124;-24
2023/08/18 04:59:29;;;;;;;;;;;;;;;-145.33;100.00;60416.63;4988883;28;20026;-24
2023/08/18 05:01:54;;;;;;;11.93;9.05;;;;;;;-145.33;100.00;60416.63;4987389;28;19929;-23
2023/08/18 05:04:20;;;;;;;17.98;10.65;;;;;;;-145.33;100.00;60416.63;4987824;28;20034;-24
2023/08/18 05:06:45;;;;;;;12.48;9.05;;;;;;;-145.33;100.00;60416.63;4987625;28;20046;-23
2023/08/18 05:09:11;;;;;;;12.18;8.50;;;;;;;-145.33;100.00;60416.63;4987672;28;22221;-23
2023/08/18 05:11:36;;;;;;;9.82;8.20;;;;;;;-145.33;100.00;60416.63;4987749;28;20033;-27
2023/08/18 05:14:02;;;;;;;11.40;7.15;;;;;;;-145.33;100.00;60416.63;4987836;28;20027;-26
2023/08/18 05:16:28;;;;;;;10.68;7.50;;;;;;;-145.33;100.00;60416.63;4987707;28;20030;-23
2023/08/18 05:18:53;;;;;;;9.18;6.90;;;;;;;-145.33;100.00;60416.63;4987384;28;20462;-23
2023/08/18 05:21:18;;;;;;;9.77;7.10;;;;;;;-145.33;100.00;60416.63;4987533;28;20037;-28
2023/08/18 05:23:44;;;;;;;9.93;7.57;;;;;;;-145.33;100.00;60416.63;4987743;28;20431;-25
2023/08/18 05:26:10;;;;;;;11.63;7.40;;;;;;;-145.33;100.00;60416.63;4987389;28;20540;-23
2023/08/18 05:28:35;;;;;;;11.15;7.30;;;;;;;-145.33;100.00;60416.63;4987393;28;20077;-23
2023/08/18 05:31:01;;;;;;;10.98;6.97;;;;;;;-145.33;100.00;60416.63;4970000;28;20030;-24
2023/08/18 05:33:26;;;;;;;9.82;7.20;;;;;;;-145.33;100.00;60416.63;4987228;28;20033;-23
2023/08/18 05:35:52;;;;;;;10.52;7.63;;;;;;;-145.33;100.00;60416.63;4987329;28;20026;-23
2023/08/18 05:38:17;;;;;;;11.05;8.07;;;;;;;-145.33;100.00;60416.63;4987318;28;20034;-23
2023/08/18 05:40:48;;;;;;;12.25;7.50;;;;;;;-145.33;100.00;60416.63;4986140;28;20065;-23
2023/08/18 05:43:14;;;;;;;12.18;7.85;;;;;;;-145.33;100.00;60416.63;4987110;28;20058;-23
2023/08/18 05:45:42;;;;;;;14.20;7.55;;;;;;;-145.33;100.00;60416.63;4986736;28;20034;-23
2023/08/18 05:48:07;;;;;;;12.57;7.38;;;;;;;-145.33;100.00;60416.63;4987435;28;20053;-26
2023/08/18 05:50:35;;;;;;;8.95;7.28;;;;;;;-145.33;100.00;60416.63;4986987;28;20299;-23
2023/08/18 05:53:01;;;;;;;;;;;;;;;-145.33;100.00;60416.63;4987636;28;20034;-24
2023/08/18 05:55:27;;;;;;;9.52;6.82;;;;;;;-145.33;100.00;60416.63;4986933;28;19918;-23
2023/08/18 05:57:54;;;;;;;10.27;6.60;;;;;;;-145.33;100.00;60416.63;4986943;28;20038;-24
2023/08/18 06:00:20;;;;;;;12.13;7.30;;;;;;;-145.33;100.00;60416.63;4986491;28;20034;-23
2023/08/18 06:02:46;;;;;;;11.40;8.05;;;;;;;-145.33;100.00;60416.63;4986988;28;20112;-23
2023/08/18 06:05:14;;;;;;;13.30;6.55;;;;;;;-145.33;100.00;60416.63;4986900;28;20457;-23
2023/08/18 06:07:39;;;;;;;14.75;7.35;;;;;;;-145.33;100.00;60416.63;4986942;28;20042;-24
2023/08/18 06:10:06;;;;;;;12.10;7.05;;;;;;;-145.33;100.00;60416.63;4986972;28;20037;-24
2023/08/18 06:12:32;;;;;;;10.20;7.30;;;;;;;-145.33;100.00;60416.63;4986562;28;20058;-23
2023/08/18 06:14:57;;;;;;;16.08;7.40;;;;;;;-145.33;100.00;60416.63;4986064;28;20057;-24
2023/08/18 06:17:22;;;;;;;11.32;7.05;;;;;;;-145.33;100.00;60416.63;4968963;28;20057;-23
2023/08/18 06:19:48;;;;;;;12.82;7.22;;;;;;;-145.33;100.00;60416.63;4986790;28;20489;-23
2023/08/18 06:22:13;;;;;;;10.68;7.07;;;;;;;-145.33;100.00;60416.63;4986354;28;20129;-23
2023/08/18 06:24:39;;;;;;;9.95;7.40;;;;;;;-145.33;100.00;60416.63;4986571;28;20019;-23
2023/08/18 06:27:05;;;;;;;14.75;9.07;;;;;;;-145.33;100.00;60416.63;4986614;28;20494;-25
2023/08/18 06:29:30;;;;;;;14.38;7.70;;;;;;;-145.33;100.00;60416.63;4986374;28;20040;-23
2023/08/18 06:31:58;;;;;;;16.00;7.40;;;;;;;-145.33;100.00;60416.63;4986482;28;20057;-24
2023/08/18 06:34:23;;;;;;;;;;;;;;;-145.33;100.00;60416.63;4986559;28;20821;-24
2023/08/18 06:36:49;;;;;;;10.17;6.80;;;;;;;-145.33;100.00;60416.63;4986475;28;20012;-25
2023/08/18 06:39:14;;;;;;;10.05;6.63;;;;;;;-145.33;100.00;60416.63;4970966;28;20297;-23
2023/08/18 06:41:42;;;;;;;12.10;6.75;;;;;;;-145.33;100.00;60416.63;4966799;28;20545;-23
2023/08/18 06:44:08;;;;;;;13.50;7.25;;;;;;;-145.33;100.00;60416.63;4967167;28;20505;-23
2023/08/18 06:46:33;;;;;;;8.80;6.53;;;;;;;-145.33;100.00;60416.63;4966689;28;20026;-22
2023/08/18 06:48:59;;;;;;;9.90;6.55;;;;;;;-145.33;100.00;60416.63;4966737;28;20027;-23
2023/08/18 06:51:24;;;;;;;8.90;6.72;;;;;;;-145.33;100.00;60416.63;4966797;28;20056;-23
2023/08/18 06:53:49;;;;;;;10.93;6.70;;;;;;;-145.33;100.00;60416.63;4967022;28;20816;-23
2023/08/18 06:56:15;;;;;;;8.38;6.18;;;;;;;-145.33;100.00;60416.63;4966242;28;20465;-26
2023/08/18 06:58:40;;;;;;;9.60;5.78;;;;;;;-145.33;100.00;60416.63;4966992;28;20174;-23
2023/08/18 07:01:06;;;;;;;14.25;6.97;;;;;;;-145.33;100.00;60416.63;4966844;28;20722;-23
2023/08/18 07:03:31;;;;;;;9.73;6.07;;;;;;;-145.33;100.00;60416.63;4966664;28;20880;-25
2023/08/18 07:05:57;;;;;;;8.43;6.10;;;;;;;-145.33;100.00;60416.63;4966303;28;20058;-24
2023/08/18 07:08:24;;;;;;;9.77;6.25;;;;;;;-145.33;100.00;60416.63;4983870;28;20062;-23
2023/08/18 07:10:50;;;;;;;8.23;5.88;;;;;;;-145.33;100.00;60416.63;4985186;28;20092;-22
2023/08/18 07:13:15;;;;;;;8.00;5.80;;;;;;;-145.33;100.00;60416.63;4984630;28;20046;-24
2023/08/18 07:15:43;;;;;;;9.23;6.25;;;;;;;-145.33;100.00;60416.63;4985087;28;20026;-24
2023/08/18 07:18:09;;;;;;;9.75;5.72;;;;;;;-145.33;100.00;60416.63;4984281;28;20442;-23
2023/08/18 07:20:34;;;;;;;8.77;5.68;;;;;;;-145.33;100.00;60416.63;4985375;28;20509;-23
2023/08/18 07:23:00;;;;;;;8.38;5.90;;;;;;;-145.33;100.00;60416.63;4985264;28;20714;-24
2023/08/18 07:25:28;;;;;;;13.18;5.78;;;;;;;-145.33;100.00;60416.63;4987208;28;20456;-23
2023/08/18 07:27:53;;;;;;;8.95;5.45;;;;;;;-145.33;100.00;60416.63;4989551;28;20026;-24
2023/08/18 07:30:18;;;;;;;8.95;5.65;;;;;;;-145.33;100.00;60416.63;4989474;28;20019;-23
2023/08/18 07:32:44;;;;;;;7.47;5.80;;;;;;;-145.33;100.00;60416.63;4989742;28;20027;-23
2023/08/18 07:35:09;;;;;;;8.23;5.85;;;;;;;-145.33;100.00;60416.63;4989571;28;20113;-24
2023/08/18 07:37:35;;;;;;;8.00;5.57;;;;;;;-145.33;100.00;60416.63;4989763;28;20121;-23
2023/08/18 07:40:05;;;;;;;7.95;5.65;;;;;;;-145.33;100.00;60416.63;4989288;28;20038;-25
2023/08/18 07:42:31;;;;;;;9.40;6.38;;;;;;;-145.33;100.00;60416.63;4989688;28;20033;-23
2023/08/18 07:44:56;;;;;;;9.95;5.75;;;;;;;-145.33;100.00;60416.63;4989316;28;20476;-24
2023/08/18 07:47:22;;;;;;;10.43;6.50;;;;;;;-145.33;100.00;60416.63;4989821;28;20033;-23
2023/08/18 07:49:49;;;;;;;14.93;5.65;;;;;;;-145.33;100.00;60416.63;4989229;28;20540;-24
2023/08/18 07:52:15;;;;;;;7.97;5.22;;;;;;;-145.33;100.00;60416.63;4989469;28;20030;-23
2023/08/18 07:54:41;;;;;;;6.85;5.20;;;;;;;-145.33;100.00;60416.63;4989522;28;20038;-23
2023/08/18 07:57:06;;;;;;;7.13;5.15;;;;;;;-145.33;100.00;60416.63;4989156;28;20505;-24
2023/08/18 07:59:31;;;;;;;9.48;5.05;;;;;;;-145.33;100.00;60416.63;4989587;28;20034;-24
2023/08/18 08:01:57;;;;;;;9.98;5.47;;;;;;;-145.33;100.00;60416.63;4988913;28;20045;-23
2023/08/18 08:04:23;;;;;;;6.28;4.57;;;;;;;-145.33;100.00;60416.63;4989372;28;20030;-24
2023/08/18 08:06:49;;;;;;;8.65;4.90;;;;;;;-145.33;100.00;60416.63;4993856;28;20129;-23
2023/08/18 08:09:15;;;;;;;8.35;5.35;;;;;;;-145.33;100.00;60416.63;5008415;28;20440;-26
2023/08/18 08:11:40;;;;;;;8.70;5.53;;;;;;;-145.33;100.00;60416.63;5008765;28;20512;-23
2023/08/18 08:14:06;;;;;;;7.45;5.10;;;;;;;-145.33;100.00;60416.63;5008303;28;20034;-23
2023/08/18 08:16:35;;;;;;;7.43;5.13;;;;;;;-145.33;100.00;60416.63;5008578;28;20034;-24
2023/08/18 08:19:03;;;;;;;8.23;5.65;;;;;;;-145.33;100.00;60416.63;5008352;28;20029;-23
2023/08/18 08:21:28;;;;;;;8.25;4.95;;;;;;;-145.33;100.00;60416.63;5008509;28;20038;-22
2023/08/18 08:24:01;;;;;;;8.23;5.03;;;;;;;-145.33;100.00;60416.63;5008169;28;20033;-23
2023/08/18 08:26:29;;;;;;;12.02;5.32;;;;;;;-145.33;100.00;60416.63;5008360;28;20033;-25
2023/08/18 08:28:54;;;;;;;12.40;5.70;;;;;;;-145.33;100.00;60416.63;5008198;28;20033;-24
2023/08/18 08:31:23;;;;;;;8.80;5.18;;;;;;;-145.33;100.00;60416.63;5008104;28;20022;-23
2023/08/18 08:33:48;;;;;;;8.88;4.78;;;;;;;-145.33;100.00;60416.63;5008051;28;20025;-23
2023/08/18 08:36:14;;;;;;;8.93;5.20;;;;;;;-145.33;100.00;60416.63;4995017;28;20026;-29
2023/08/18 08:38:39;;;;;;;10.50;5.28;;;;;;;-145.33;100.00;60416.63;4988511;28;20030;-24
2023/08/18 08:41:05;;;;;;;9.13;5.20;;;;;;;-145.33;100.00;60416.63;4988180;28;20454;-23
2023/08/18 08:43:30;;;;;;;9.35;5.47;;;;;;;-145.33;100.00;60416.63;4988338;28;20030;-23
2023/08/18 08:45:58;;;;;;;9.57;5.10;;;;;;;-145.33;100.00;60416.63;4988147;28;20092;-23
2023/08/18 08:48:36;;;;;;;9.25;5.43;;;;;;;-145.33;100.00;60416.63;4988435;28;20104;-24
2023/08/18 08:51:04;;;;;;;9.20;5.40;;;;;;;-145.33;100.00;60416.63;4986578;28;20103;-24
2023/08/18 08:53:35;;;;;;;7.88;5.05;;;;;;;-145.33;100.00;60416.63;4987878;28;20284;-23
2023/08/18 08:56:06;;;;;;;7.80;5.22;;;;;;;-145.33;100.00;60416.63;4987947;28;20030;-25
2023/08/18 08:58:35;;;;;;;9.23;5.00;;;;;;;-145.33;100.00;60416.63;4988038;28;20026;-24
2023/08/18 09:01:02;;;;;;;7.13;4.65;;;;;;;-145.33;100.00;60416.63;4988267;28;20037;-23
2023/08/18 09:03:28;;;;;;;7.20;5.15;;;;;;;-145.33;100.00;60416.63;4988110;28;20027;-23
2023/08/18 09:05:55;;;;;;;8.18;5.22;;;;;;;-145.33;100.00;60416.63;4987925;28;20050;-23
2023/08/18 09:08:20;;;;;;;8.43;4.85;;;;;;;-145.33;100.00;60416.63;4987920;28;20097;-23
2023/08/18 09:10:48;;;;;;;6.70;4.93;;;;;;;-145.33;100.00;60416.63;4987701;28;20046;-23
2023/08/18 09:13:14;;;;;;;10.57;4.85;;;;;;;-145.33;100.00;60416.63;4987932;28;20035;-23
2023/08/18 09:15:41;;;;;;;8.63;5.10;;;;;;;-145.33;100.00;60416.63;4988013;28;20069;-23
2023/08/18 09:18:11;;;;;;;6.13;4.10;;;;;;;-145.33;100.00;60416.63;4987543;28;20034;-25
2023/08/18 09:20:37;;;;;;;6.40;3.63;;;;;;;-145.33;100.00;60416.63;4987769;28;20681;-24
2023/08/18 09:23:03;;;;;;;13.15;4.90;;;;;;;-145.33;100.00;60416.63;4987993;28;20023;-23
2023/08/18 09:25:33;;;;;;;8.95;4.57;;;;;;;-145.33;100.00;60416.63;4987913;28;20034;-23
2023/08/18 09:27:59;;;;;;;7.22;3.80;;;;;;;-145.33;100.00;60416.63;4987416;28;20109;-25
2023/08/18 09:30:27;;;;;;;9.93;3.90;;;;;;;-145.33;100.00;60416.63;4987265;28;20136;-24
2023/08/18 09:32:53;;;;;;;7.57;3.70;;;;;;;-145.33;100.00;60416.63;4987476;28;20394;-23
2023/08/18 09:35:21;;;;;;;9.52;4.20;;;;;;;-145.33;100.00;60416.63;4987652;28;20513;-23
2023/08/18 09:37:57;;;;;;;12.50;4.53;;;;;;;-145.33;100.00;60416.63;4987485;28;20034;-23
2023/08/18 09:41:21;;;;;;;8.68;4.07;;;;;;;-145.33;100.00;60416.63;4986930;28;20036;-23
2023/08/18 09:43:48;;;;;;;7.63;3.88;;;;;;;-145.33;100.00;60416.63;4987336;28;20058;-23
2023/08/18 09:46:15;;;;;;;9.23;4.18;;;;;;;-145.33;100.00;60416.63;4987364;28;20398;-23
2023/08/18 09:48:44;;;;;;;6.13;3.75;;;;;;;-145.33;100.00;60416.63;4986255;28;20073;-24
2023/08/18 09:51:12;;;;;;;5.78;3.78;;;;;;;-145.33;100.00;60416.63;4987080;28;20034;-24
2023/08/18 09:53:43;;;;;;;6.35;4.05;;;;;;;-145.33;100.00;60416.63;4987253;28;20631;-24
2023/08/18 09:56:25;;;;;;;12.88;3.83;;;;;;;-145.33;100.00;60416.63;4987201;28;20497;-23
2023/08/18 09:59:03;;;;;;;7.35;3.90;;;;;;;-145.33;100.00;60416.63;4987191;28;20092;-22
2023/08/18 10:01:31;;;;;;;5.00;3.90;;;;;;;-145.33;100.00;60416.63;4987103;28;20069;-23
2023/08/18 10:04:01;;;;;;;8.48;4.10;;;;;;;-145.33;100.00;60416.63;4986980;28;20019;-23
2023/08/18 10:06:28;;;;;;;10.63;3.83;;;;;;;-145.33;100.00;60416.63;4986652;28;20110;-23
2023/08/18 10:08:54;;;;;;;5.77;4.00;;;;;;;-145.33;100.00;60416.63;4986626;28;20125;-25
2023/08/18 10:11:20;;;;;;;8.50;4.10;;;;;;;-145.33;100.00;60416.63;4986292;28;20026;-24
2023/08/18 10:13:47;;;;;;;8.90;3.88;;;;;;;-145.33;100.00;60416.63;4986601;28;20041;-25
2023/08/18 10:16:14;;;;;;;9.07;4.03;;;;;;;-145.33;100.00;60416.63;4986646;28;20081;-23
2023/08/18 10:18:41;;;;;;;7.25;3.80;;;;;;;-145.33;100.00;60416.63;4986507;28;20116;-24
2023/08/18 10:21:10;;;;;;;6.55;3.88;;;;;;;-145.33;100.00;60416.63;4986851;28;20461;-25
2023/08/18 10:23:36;;;;;;;6.82;3.63;;;;;;;-145.33;100.00;60416.63;4986789;28;20064;-23
2023/08/18 10:26:05;;;;;;;12.77;8.63;;;;;;;-145.33;100.00;60416.63;4986820;28;20030;-23
2023/08/18 10:28:33;;;;;;;8.98;4.15;;;;;;;-145.33;100.00;60416.63;4986508;28;20060;-27
2023/08/18 10:31:05;;;;;;;5.85;3.70;;;;;;;-145.33;100.00;60416.63;4985722;28;20505;-23
2023/08/18 10:33:37;;;;;;;11.38;4.00;;;;;;;-145.33;100.00;60416.63;4986137;28;20560;-25
2023/08/18 10:36:05;;;;;;;9.70;3.92;;;;;;;-145.33;100.00;60416.63;4980717;28;20069;-24
2023/08/18 10:38:36;;;;;;;6.82;3.60;;;;;;;-145.33;100.00;60416.63;4986462;28;20030;-23
2023/08/18 10:41:03;;;;;;;7.15;3.78;;;;;;;-145.33;100.00;60416.63;4986508;28;20073;-24
2023/08/18 10:43:29;;;;;;;6.15;3.70;;;;;;;-145.33;100.00;60416.63;4986090;28;20035;-23
2023/08/18 10:46:01;;;;;;;8.30;4.18;;;;;;;-145.33;100.00;60416.63;4986695;28;20120;-23
2023/08/18 10:48:34;;;;;;;7.70;4.07;;;;;;;-145.33;100.00;60416.63;4986326;28;20076;-24
2023/08/18 10:51:00;;;;;;;10.77;3.97;;;;;;;-145.33;100.00;60416.63;4986509;28;20121;-24
2023/08/18 10:53:31;;;;;;;9.20;4.00;;;;;;;-145.33;100.00;60416.63;4986077;28;20120;-23
2023/08/18 10:55:57;;;;;;;7.80;3.80;;;;;;;-145.33;100.00;60416.63;4986259;28;20026;-24
2023/08/18 10:58:22;;;;;;;9.70;4.05;;;;;;;-145.33;100.00;60416.63;5001130;28;20026;-24
2023/08/18 11:00:49;;;;;;;16.90;4.63;;;;;;;-145.33;100.00;60416.63;4990369;28;20559;-24
2023/08/18 11:03:15;;;;;;;9.90;4.20;;;;;;;-145.33;100.00;60416.63;4992918;28;20049;-24